Observation data for Slaton on 12/08/2018      Previous  Date       Current Mesonet Observations  Soil Data  Daily Summary Page  Observations in Plain Language
KSLS 080600Z 02005KT M00/M01 A3026 RMK A01 T10031008  RH  098%=      5-min Rain = 0
KSLS 080605Z 01005KT M00/M01 A3026 RMK A01 T10031008  RH  098%=      5-min Rain = 0.01
KSLS 080610Z 01006KT M00/M01 A3026 RMK A01 T10031008  RH  098%=      5-min Rain = 0
KSLS 080615Z 01006KT M00/M01 A3026 RMK A01 T10041009  RH  098%=      5-min Rain = 0.01
KSLS 080620Z 01008KT M00/M01 A3025 RMK A01 T10041009  RH  098%=      5-min Rain = 0
KSLS 080625Z 01005KT M00/M01 A3025 RMK A01 T10041009  RH  098%=      5-min Rain = 0.01
KSLS 080630Z 01006KT M00/M01 A3026 RMK A01 T10041009  RH  098%=      5-min Rain = 0
KSLS 080635Z 01006KT M00/M01 A3026 RMK A01 T10041009  RH  098%=      5-min Rain = 0
KSLS 080640Z 02006KT M00/M01 A3026 RMK A01 T10041009  RH  098%=      5-min Rain = 0
KSLS 080645Z 01006KT M00/M01 A3026 RMK A01 T10041009  RH  098%=      5-min Rain = 0
KSLS 080650Z 01006KT M00/M01 A3026 RMK A01 T10041009  RH  098%=      5-min Rain = 0
KSLS 080655Z 01006KT M00/M01 A3026 RMK A01 T10041008  RH  098%=      5-min Rain = 0
KSLS 080700Z 01006KT M00/M01 A3026 RMK A01 T10041009  RH  098%=      5-min Rain = 0
KSLS 080705Z 02006KT M00/M01 A3026 RMK A01 T10041009  RH  098%=      5-min Rain = 0
KSLS 080710Z 02007KT M00/M01 A3026 RMK A01 T10041009  RH  098%=      5-min Rain = 0
KSLS 080715Z 02007KT M00/M01 A3025 RMK A01 T10041009  RH  098%=      5-min Rain = 0
KSLS 080720Z 02006KT M01/M01 A3025 RMK A01 T10051009  RH  098%=      5-min Rain = 0
KSLS 080725Z 01006KT M01/M01 A3025 RMK A01 T10051009  RH  098%=      5-min Rain = 0
KSLS 080730Z 01008KT M01/M01 A3025 RMK A01 T10051009  RH  098%=      5-min Rain = 0
KSLS 080735Z 02007KT M01/M01 A3025 RMK A01 T10061010  RH  098%=      5-min Rain = 0
KSLS 080740Z 01006KT M01/M01 A3025 RMK A01 T10061009  RH  098%=      5-min Rain = 0
KSLS 080745Z 01006KT M01/M01 A3025 RMK A01 T10061009  RH  098%=      5-min Rain = 0
KSLS 080750Z 02006KT M01/M01 A3025 RMK A01 T10061010  RH  099%=      5-min Rain = 0
KSLS 080755Z 00005KT M01/M01 A3025 RMK A01 T10061010  RH  099%=      5-min Rain = 0
KSLS 080800Z 01005KT M01/M01 A3025 RMK A01 T10071010  RH  099%=      5-min Rain = 0
KSLS 080805Z 00007KT M01/M01 A3025 RMK A01 T10071011  RH  099%=      5-min Rain = 0
KSLS 080810Z 01007KT M01/M01 A3025 RMK A01 T10081011  RH  099%=      5-min Rain = 0
KSLS 080815Z 00006KT M01/M01 A3025 RMK A01 T10081011  RH  099%=      5-min Rain = 0
KSLS 080820Z 00006KT M01/M01 A3025 RMK A01 T10081011  RH  099%=      5-min Rain = 0
KSLS 080825Z 00006KT M01/M01 A3025 RMK A01 T10081012  RH  099%=      5-min Rain = 0
KSLS 080830Z 36009KT M01/M01 A3025 RMK A01 T10091012  RH  099%=      5-min Rain = 0
KSLS 080835Z 00010KT M01/M01 A3024 RMK A01 T10091013  RH  099%=      5-min Rain = 0
KSLS 080840Z 01009G14KT M01/M01 A3024 RMK A01 T10101014  RH  099%=      5-min Rain = 0
KSLS 080845Z 00007KT M01/M01 A3024 RMK A01 T10101014  RH  099%=      5-min Rain = 0
KSLS 080850Z 00008KT M01/M01 A3024 RMK A01 T10111014  RH  099%=      5-min Rain = 0
KSLS 080855Z 00008KT M01/M02 A3024 RMK A01 T10111015  RH  099%=      5-min Rain = 0
KSLS 080900Z 00007KT M01/M02 A3024 RMK A01 T10111015  RH  099%=      5-min Rain = 0
KSLS 080905Z 00007KT M01/M02 A3024 RMK A01 T10111015  RH  099%=      5-min Rain = 0
KSLS 080910Z 00007KT M01/M01 A3024 RMK A01 T10111014  RH  099%=      5-min Rain = 0
KSLS 080915Z 00008KT M01/M02 A3024 RMK A01 T10111015  RH  099%=      5-min Rain = 0
KSLS 080920Z 00007KT M01/M02 A3024 RMK A01 T10111015  RH  099%=      5-min Rain = 0
KSLS 080925Z 00007KT M01/M02 A3024 RMK A01 T10111015  RH  099%=      5-min Rain = 0
KSLS 080930Z 02007KT M01/M02 A3023 RMK A01 T10111015  RH  099%=      5-min Rain = 0
KSLS 080935Z 01007KT M01/M02 A3023 RMK A01 T10111015  RH  099%=      5-min Rain = 0
KSLS 080940Z 00006KT M01/M02 A3023 RMK A01 T10111015  RH  099%=      5-min Rain = 0
KSLS 080945Z 01007KT M01/M02 A3023 RMK A01 T10111015  RH  099%=      5-min Rain = 0
KSLS 080950Z 01008KT M01/M02 A3023 RMK A01 T10111015  RH  099%=      5-min Rain = 0
KSLS 080955Z 01008KT M01/M02 A3023 RMK A01 T10111015  RH  099%=      5-min Rain = 0
KSLS 081000Z 02007KT M01/M02 A3023 RMK A01 T10111015  RH  099%=      5-min Rain = 0
KSLS 081005Z 02007KT M01/M01 A3023 RMK A01 T10111014  RH  099%=      5-min Rain = 0
KSLS 081010Z 02007KT M01/M01 A3023 RMK A01 T10111014  RH  099%=      5-min Rain = 0
KSLS 081015Z 02007KT M01/M01 A3023 RMK A01 T10111014  RH  099%=      5-min Rain = 0
KSLS 081020Z 01005KT M01/M01 A3023 RMK A01 T10111014  RH  099%=      5-min Rain = 0
KSLS 081025Z 02006KT M01/M01 A3023 RMK A01 T10111014  RH  099%=      5-min Rain = 0
KSLS 081030Z 01007KT M01/M01 A3023 RMK A01 T10111014  RH  099%=      5-min Rain = 0
KSLS 081035Z 01007KT M01/M02 A3023 RMK A01 T10111015  RH  099%=      5-min Rain = 0
KSLS 081040Z 01008KT M01/M02 A3023 RMK A01 T10121015  RH  099%=      5-min Rain = 0
KSLS 081045Z 01009KT M01/M02 A3023 RMK A01 T10121016  RH  098%=      5-min Rain = 0
KSLS 081050Z 01009KT M01/M02 A3023 RMK A01 T10131017  RH  098%=      5-min Rain = 0
KSLS 081055Z 01007KT M01/M02 A3023 RMK A01 T10131017  RH  099%=      5-min Rain = 0
KSLS 081100Z 02008KT M01/M02 A3023 RMK A01 T10141017  RH  099%=      5-min Rain = 0
KSLS 081105Z 01008KT M01/M02 A3023 RMK A01 T10141017  RH  098%=      5-min Rain = 0
KSLS 081110Z 02008KT M01/M02 A3023 RMK A01 T10141018  RH  098%=      5-min Rain = 0
KSLS 081115Z 02007KT M01/M02 A3023 RMK A01 T10141018  RH  098%=      5-min Rain = 0
KSLS 081120Z 02007KT M01/M02 A3023 RMK A01 T10141018  RH  098%=      5-min Rain = 0
KSLS 081125Z 02007KT M01/M02 A3024 RMK A01 T10141018  RH  098%=      5-min Rain = 0
KSLS 081130Z 02007G12KT M01/M02 A3024 RMK A01 T10141018  RH  098%=      5-min Rain = 0
KSLS 081135Z 02009KT M01/M02 A3024 RMK A01 T10141018  RH  098%=      5-min Rain = 0
KSLS 081140Z 02009KT M01/M02 A3024 RMK A01 T10141018  RH  098%=      5-min Rain = 0
KSLS 081145Z 02008KT M01/M02 A3024 RMK A01 T10141018  RH  098%=      5-min Rain = 0
KSLS 081150Z 02008KT M01/M02 A3024 RMK A01 T10141018  RH  098%=      5-min Rain = 0
KSLS 081155Z 02007KT M01/M02 A3024 RMK A01 T10141018  RH  098%=      5-min Rain = 0
KSLS 081200Z 03007KT M01/M02 A3025 RMK A01 T10141018  RH  098%=      5-min Rain = 0
KSLS 081205Z 02007KT M01/M02 A3025 RMK A01 T10141018  RH  098%=      5-min Rain = 0
KSLS 081210Z 02007KT M01/M02 A3025 RMK A01 T10141018  RH  098%=      5-min Rain = 0
KSLS 081215Z 02007KT M01/M02 A3025 RMK A01 T10141018  RH  098%=      5-min Rain = 0
KSLS 081220Z 02008KT M01/M02 A3025 RMK A01 T10141018  RH  098%=      5-min Rain = 0
KSLS 081225Z 01008KT M01/M02 A3025 RMK A01 T10141018  RH  098%=      5-min Rain = 0
KSLS 081230Z 02007KT M01/M02 A3026 RMK A01 T10141018  RH  098%=      5-min Rain = 0
KSLS 081235Z 02006KT M01/M02 A3026 RMK A01 T10141018  RH  098%=      5-min Rain = 0
KSLS 081240Z 02005KT M01/M02 A3026 RMK A01 T10141018  RH  098%=      5-min Rain = 0
KSLS 081245Z 02005KT M01/M02 A3026 RMK A01 T10141018  RH  098%=      5-min Rain = 0
KSLS 081250Z 01005KT M01/M02 A3026 RMK A01 T10141018  RH  098%=      5-min Rain = 0
KSLS 081255Z 01005KT M01/M02 A3027 RMK A01 T10141018  RH  098%=      5-min Rain = 0
KSLS 081300Z 01005KT M01/M02 A3027 RMK A01 T10141018  RH  098%=      5-min Rain = 0
KSLS 081305Z 01006KT M01/M02 A3027 RMK A01 T10141018  RH  098%=      5-min Rain = 0
KSLS 081310Z 01007KT M01/M02 A3027 RMK A01 T10141018  RH  098%=      5-min Rain = 0
KSLS 081315Z 01007KT M02/M02 A3028 RMK A01 T10151018  RH  098%=      5-min Rain = 0
KSLS 081320Z 01007KT M02/M02 A3028 RMK A01 T10151018  RH  098%=      5-min Rain = 0
KSLS 081325Z 00007KT M02/M02 A3028 RMK A01 T10151018  RH  098%=      5-min Rain = 0
KSLS 081330Z 01007KT M02/M02 A3028 RMK A01 T10151019  RH  098%=      5-min Rain = 0
KSLS 081335Z 02007KT M02/M02 A3028 RMK A01 T10151019  RH  098%=      5-min Rain = 0
KSLS 081340Z 02006KT M02/M02 A3028 RMK A01 T10161019  RH  098%=      5-min Rain = 0
KSLS 081345Z 02006KT M02/M02 A3028 RMK A01 T10161020  RH  098%=      5-min Rain = 0
KSLS 081350Z 01006KT M02/M02 A3028 RMK A01 T10161019  RH  098%=      5-min Rain = 0
KSLS 081355Z 01005KT M02/M02 A3028 RMK A01 T10151019  RH  098%=      5-min Rain = 0
KSLS 081400Z 00004KT M02/M02 A3028 RMK A01 T10151019  RH  098%=      5-min Rain = 0
KSLS 081405Z 36005KT M01/M02 A3028 RMK A01 T10141018  RH  098%=      5-min Rain = 0
KSLS 081410Z 36007KT M01/M02 A3028 RMK A01 T10141018  RH  098%=      5-min Rain = 0
KSLS 081415Z 00007KT M01/M02 A3029 RMK A01 T10141017  RH  098%=      5-min Rain = 0
KSLS 081420Z 00006KT M01/M02 A3029 RMK A01 T10141017  RH  098%=      5-min Rain = 0
KSLS 081425Z 36008KT M01/M02 A3029 RMK A01 T10141018  RH  098%=      5-min Rain = 0
KSLS 081430Z 00007KT M01/M02 A3029 RMK A01 T10141018  RH  098%=      5-min Rain = 0
KSLS 081435Z 36007KT M01/M02 A3029 RMK A01 T10141018  RH  098%=      5-min Rain = 0
KSLS 081440Z 00008KT M02/M02 A3029 RMK A01 T10151019  RH  098%=      5-min Rain = 0
KSLS 081445Z 36007KT M02/M02 A303 RMK A01 T10151019  RH  098%=      5-min Rain = 0
KSLS 081450Z 36007KT M01/M02 A303 RMK A01 T10141019  RH  098%=      5-min Rain = 0
KSLS 081455Z 36007KT M01/M02 A303 RMK A01 T10141019  RH  098%=      5-min Rain = 0
KSLS 081500Z 00008KT M01/M02 A303 RMK A01 T10141019  RH  098%=      5-min Rain = 0
KSLS 081505Z 01008KT M01/M02 A303 RMK A01 T10141018  RH  098%=      5-min Rain = 0
KSLS 081510Z 01007KT M01/M02 A303 RMK A01 T10131018  RH  098%=      5-min Rain = 0
KSLS 081515Z 01007KT M01/M02 A303 RMK A01 T10121017  RH  097%=      5-min Rain = 0
KSLS 081520Z 01007KT M01/M02 A303 RMK A01 T10101015  RH  097%=      5-min Rain = 0
KSLS 081525Z 00006KT M01/M01 A303 RMK A01 T10091014  RH  097%=      5-min Rain = 0
KSLS 081530Z 36005KT M01/M01 A3031 RMK A01 T10071013  RH  097%=      5-min Rain = 0
KSLS 081535Z 36006KT M01/M01 A3031 RMK A01 T10071012  RH  097%=      5-min Rain = 0
KSLS 081540Z 36007KT M01/M01 A3031 RMK A01 T10061012  RH  097%=      5-min Rain = 0
KSLS 081545Z 36007KT M01/M01 A3031 RMK A01 T10071013  RH  097%=      5-min Rain = 0
KSLS 081550Z 36008KT M01/M01 A3031 RMK A01 T10061012  RH  097%=      5-min Rain = 0
KSLS 081555Z 36007KT M01/M01 A3031 RMK A01 T10051011  RH  097%=      5-min Rain = 0
KSLS 081600Z 00007KT M01/M01 A3031 RMK A01 T10051011  RH  097%=      5-min Rain = 0
KSLS 081605Z 00007KT M01/M01 A3031 RMK A01 T10051011  RH  097%=      5-min Rain = 0
KSLS 081610Z 36008KT M00/M01 A3031 RMK A01 T10031010  RH  096%=      5-min Rain = 0
KSLS 081615Z 36008KT M00/M01 A3032 RMK A01 T10021009  RH  096%=      5-min Rain = 0
KSLS 081620Z 35008KT M00/M01 A3032 RMK A01 T10011008  RH  096%=      5-min Rain = 0
KSLS 081625Z 35008KT M00/M01 A3032 RMK A01 T10011008  RH  096%=      5-min Rain = 0
KSLS 081630Z 35008KT 00/01 A3032 RMK A01 T00-000-8  RH  096%=      5-min Rain = 0
KSLS 081635Z 35008KT 00/01 A3032 RMK A01 T000000-8  RH  095%=      5-min Rain = 0
KSLS 081640Z 35007KT 00/M01 A3032 RMK A01 T00021006  RH  095%=      5-min Rain = 0
KSLS 081645Z 35006KT 00/M01 A3032 RMK A01 T00031006  RH  095%=      5-min Rain = 0
KSLS 081650Z 35008KT 00/M01 A3032 RMK A01 T00031006  RH  094%=      5-min Rain = 0
KSLS 081655Z 36008KT 01/M01 A3032 RMK A01 T00051006  RH  094%=      5-min Rain = 0
KSLS 081700Z 35008KT 01/M01 A3032 RMK A01 T00061005  RH  093%=      5-min Rain = 0
KSLS 081705Z 35009G14KT 01/M01 A3032 RMK A01 T00061006  RH  093%=      5-min Rain = 0
KSLS 081710Z 36009KT 01/M01 A3032 RMK A01 T00051006  RH  093%=      5-min Rain = 0
KSLS 081715Z 35009KT 01/M00 A3032 RMK A01 T00071004  RH  093%=      5-min Rain = 0
KSLS 081720Z 35008KT 01/M00 A3032 RMK A01 T00091003  RH  092%=      5-min Rain = 0
KSLS 081725Z 35008KT 01/M00 A3032 RMK A01 T00121002  RH  091%=      5-min Rain = 0
KSLS 081730Z 35007KT 02/00 A3032 RMK A01 T00180001  RH  090%=      5-min Rain = 0
KSLS 081735Z 35008KT 02/00 A3032 RMK A01 T00240004  RH  088%=      5-min Rain = 0
KSLS 081740Z 35008KT 02/00 A3032 RMK A01 T00220000  RH  086%=      5-min Rain = 0
KSLS 081745Z 35007KT 02/M00 A3031 RMK A01 T00171002  RH  088%=      5-min Rain = 0
KSLS 081750Z 35008KT 02/M00 A3031 RMK A01 T00171003  RH  088%=      5-min Rain = 0
KSLS 081755Z 35007KT 02/M00 A3031 RMK A01 T00161003  RH  088%=      5-min Rain = 0.05
KSLS 081800Z 36008KT 02/M00 A3031 RMK A01 T00161004  RH  088%=      5-min Rain = 0.02
KSLS 081805Z 35008KT 02/M00 A3031 RMK A01 T00161004  RH  088%=      5-min Rain = 0.01
KSLS 081810Z 35008KT 01/M01 A3031 RMK A01 T00131006  RH  088%=      5-min Rain = 0.01
KSLS 081815Z 35008KT 01/M01 A3031 RMK A01 T00131006  RH  088%=      5-min Rain = 0.01
KSLS 081820Z 36007KT 01/M01 A3031 RMK A01 T00121007  RH  088%=      5-min Rain = 0
KSLS 081825Z 35007KT 01/M01 A303 RMK A01 T00141005  RH  088%=      5-min Rain = 0.01
KSLS 081830Z 35007KT 02/M01 A303 RMK A01 T00161005  RH  087%=      5-min Rain = 0.01
KSLS 081835Z 35007KT 02/M01 A303 RMK A01 T00161005  RH  087%=      5-min Rain = 0.02
KSLS 081840Z 35008KT 02/M01 A3029 RMK A01 T00161006  RH  086%=      5-min Rain = 0.02
KSLS 081845Z 35008KT 02/M01 A3029 RMK A01 T00171008  RH  084%=      5-min Rain = 0.02
KSLS 081850Z 35007KT 02/M01 A3029 RMK A01 T00161009  RH  084%=      5-min Rain = 0.02
KSLS 081855Z 35007KT 02/M01 A3029 RMK A01 T00171009  RH  084%=      5-min Rain = 0.01
KSLS 081900Z 34007KT 02/M01 A3029 RMK A01 T00161008  RH  085%=      5-min Rain = 0.02
KSLS 081905Z 35006KT 01/M01 A3028 RMK A01 T00141010  RH  085%=      5-min Rain = 0.02
KSLS 081910Z 36006KT 02/M01 A3028 RMK A01 T00161009  RH  084%=      5-min Rain = 0.01
KSLS 081915Z 00006KT 02/M01 A3027 RMK A01 T00181008  RH  083%=      5-min Rain = 0.01
KSLS 081920Z 36006KT 02/M01 A3027 RMK A01 T00181010  RH  083%=      5-min Rain = 0.01
KSLS 081925Z 36007KT 02/M01 A3027 RMK A01 T00161012  RH  083%=      5-min Rain = 0
KSLS 081930Z 00007KT 02/M01 A3026 RMK A01 T00161012  RH  083%=      5-min Rain = 0.01
KSLS 081935Z 01006KT 02/M01 A3026 RMK A01 T00151012  RH  083%=      5-min Rain = 0.02
KSLS 081940Z 00006KT 02/M01 A3026 RMK A01 T00161012  RH  083%=      5-min Rain = 0.01
KSLS 081945Z 00006KT 02/M01 A3026 RMK A01 T00161013  RH  082%=      5-min Rain = 0
KSLS 081950Z 35006KT 01/M01 A3026 RMK A01 T00141013  RH  083%=      5-min Rain = 0.01
KSLS 081955Z 35006KT 01/M01 A3026 RMK A01 T00131012  RH  084%=      5-min Rain = 0.01
KSLS 082000Z 34006KT 01/M01 A3026 RMK A01 T00121013  RH  085%=      5-min Rain = 0.01
KSLS 082005Z 34006KT 01/M01 A3026 RMK A01 T00121012  RH  085%=      5-min Rain = 0
KSLS 082010Z 34008KT 01/M02 A3026 RMK A01 T00101015  RH  084%=      5-min Rain = 0.01
KSLS 082015Z 34007KT 01/M02 A3026 RMK A01 T00081015  RH  086%=      5-min Rain = 0
KSLS 082020Z 35007KT 01/M02 A3026 RMK A01 T00071015  RH  086%=      5-min Rain = 0.01
KSLS 082025Z 35006KT 01/M01 A3026 RMK A01 T00081014  RH  086%=      5-min Rain = 0
KSLS 082030Z 35005KT 01/M01 A3026 RMK A01 T00091013  RH  086%=      5-min Rain = 0.01
KSLS 082035Z 34005KT 01/M01 A3026 RMK A01 T00091014  RH  086%=      5-min Rain = 0.02
KSLS 082040Z 34006KT 01/M01 A3025 RMK A01 T00101012  RH  086%=      5-min Rain = 0
KSLS 082045Z 34006KT 01/M01 A3025 RMK A01 T00101013  RH  085%=      5-min Rain = 0.01
KSLS 082050Z 34006KT 01/M01 A3025 RMK A01 T00101014  RH  085%=      5-min Rain = 0
KSLS 082055Z 35006KT 01/M02 A3025 RMK A01 T00091015  RH  085%=      5-min Rain = 0.01
KSLS 082100Z 34006KT 01/M02 A3025 RMK A01 T00101015  RH  085%=      5-min Rain = 0
KSLS 082105Z 34006KT 01/M02 A3025 RMK A01 T00101015  RH  085%=      5-min Rain = 0.01
KSLS 082110Z 34006KT 01/M01 A3025 RMK A01 T00101014  RH  085%=      5-min Rain = 0.01
KSLS 082115Z 34006KT 01/M02 A3025 RMK A01 T00111015  RH  084%=      5-min Rain = 0.02
KSLS 082120Z 34006KT 01/M01 A3025 RMK A01 T00111014  RH  084%=      5-min Rain = 0.01
KSLS 082125Z 35006KT 01/M01 A3024 RMK A01 T00121014  RH  083%=      5-min Rain = 0.02
KSLS 082130Z 34006KT 01/M02 A3025 RMK A01 T00101016  RH  084%=      5-min Rain = 0.01
KSLS 082135Z 34006KT 01/M02 A3025 RMK A01 T00091016  RH  084%=      5-min Rain = 0.02
KSLS 082140Z 33006KT 01/M02 A3025 RMK A01 T00081016  RH  085%=      5-min Rain = 0.01
KSLS 082145Z 34006KT 01/M02 A3025 RMK A01 T00071017  RH  085%=      5-min Rain = 0.01
KSLS 082150Z 34005KT 01/M02 A3025 RMK A01 T00071016  RH  085%=      5-min Rain = 0
KSLS 082155Z 35005KT 01/M02 A3025 RMK A01 T00071016  RH  086%=      5-min Rain = 0
KSLS 082200Z 35005KT 01/M02 A3025 RMK A01 T00071016  RH  086%=      5-min Rain = 0
KSLS 082205Z 35005KT 01/M02 A3025 RMK A01 T00081015  RH  085%=      5-min Rain = 0
KSLS 082210Z 34005KT 01/M01 A3025 RMK A01 T00101014  RH  085%=      5-min Rain = 0
KSLS 082215Z 34005KT 01/M02 A3025 RMK A01 T00111015  RH  084%=      5-min Rain = 0
KSLS 082220Z 33005KT 01/M02 A3025 RMK A01 T00101015  RH  084%=      5-min Rain = 0
KSLS 082225Z 34006KT 01/M02 A3025 RMK A01 T00111015  RH  083%=      5-min Rain = 0
KSLS 082230Z 33006KT 01/M02 A3025 RMK A01 T00101016  RH  083%=      5-min Rain = 0
KSLS 082235Z 34006KT 01/M02 A3025 RMK A01 T00091016  RH  084%=      5-min Rain = 0
KSLS 082240Z 34005KT 01/M02 A3025 RMK A01 T00091016  RH  084%=      5-min Rain = 0
KSLS 082245Z 33005KT 01/M02 A3025 RMK A01 T00081016  RH  085%=      5-min Rain = 0
KSLS 082250Z 33005KT 01/M02 A3025 RMK A01 T00061017  RH  085%=      5-min Rain = 0
KSLS 082255Z 33004KT 01/M02 A3025 RMK A01 T00051018  RH  086%=      5-min Rain = 0
KSLS 082300Z 33003KT 01/M02 A3025 RMK A01 T00051018  RH  086%=      5-min Rain = 0
KSLS 082305Z 33003KT 00/M02 A3025 RMK A01 T00041018  RH  086%=      5-min Rain = 0
KSLS 082310Z 33004KT 00/M02 A3025 RMK A01 T00021019  RH  087%=      5-min Rain = 0
KSLS 082315Z 34003KT 00/M02 A3025 RMK A01 T00011019  RH  088%=      5-min Rain = 0
KSLS 082320Z 34004KT M00/M02 A3025 RMK A01 T10011019  RH  088%=      5-min Rain = 0
KSLS 082325Z 34004KT M00/M02 A3025 RMK A01 T10031021  RH  089%=      5-min Rain = 0
KSLS 082330Z 34005KT M01/M02 A3025 RMK A01 T10051022  RH  089%=      5-min Rain = 0
KSLS 082335Z 34004KT M01/M02 A3025 RMK A01 T10061022  RH  090%=      5-min Rain = 0
KSLS 082340Z 35003KT M01/M02 A3025 RMK A01 T10071022  RH  090%=      5-min Rain = 0
KSLS 082345Z 35003KT M01/M02 A3025 RMK A01 T10071022  RH  091%=      5-min Rain = 0
KSLS 082350Z 35003KT M01/M02 A3025 RMK A01 T10081023  RH  091%=      5-min Rain = 0
KSLS 082355Z 36002KT M01/M02 A3025 RMK A01 T10091023  RH  091%=      5-min Rain = 0
KSLS 090000Z 00001KT M01/M02 A3025 RMK A01 T10101024  RH  091%=      5-min Rain = 0
KSLS 090005Z 00001KT M01/M02 A3025 RMK A01 T10101024  RH  092%=      5-min Rain = 0
KSLS 090010Z 00001KT M01/M03 A3026 RMK A01 T10121025  RH  092%=      5-min Rain = 0
KSLS 090015Z 36001KT M01/M03 A3026 RMK A01 T10131026  RH  092%=      5-min Rain = 0
KSLS 090020Z 35001KT M02/M03 A3026 RMK A01 T10151027  RH  092%=      5-min Rain = 0
KSLS 090025Z 36001KT M02/M03 A3026 RMK A01 T10151027  RH  093%=      5-min Rain = 0
KSLS 090030Z 36001KT M02/M03 A3026 RMK A01 T10161026  RH  093%=      5-min Rain = 0
KSLS 090035Z 00000KT M02/M03 A3026 RMK A01 T10151026  RH  094%=      5-min Rain = 0
KSLS 090040Z 36001KT M02/M03 A3027 RMK A01 T10151025  RH  094%=      5-min Rain = 0
KSLS 090045Z 35002KT M02/M03 A3027 RMK A01 T10161026  RH  094%=      5-min Rain = 0
KSLS 090050Z 33002KT M02/M03 A3027 RMK A01 T10191030  RH  093%=      5-min Rain = 0
KSLS 090055Z 32003KT M02/M03 A3028 RMK A01 T10221033  RH  093%=      5-min Rain = 0
KSLS 090100Z 33003KT M02/M03 A3028 RMK A01 T10191028  RH  095%=      5-min Rain = 0
KSLS 090105Z 36002KT M02/M03 A3028 RMK A01 T10181028  RH  094%=      5-min Rain = 0
KSLS 090110Z 36002KT M02/M03 A3028 RMK A01 T10191029  RH  094%=      5-min Rain = 0
KSLS 090115Z 00002KT M02/M03 A3028 RMK A01 T10191028  RH  095%=      5-min Rain = 0
KSLS 090120Z 01002KT M02/M03 A3027 RMK A01 T10191028  RH  095%=      5-min Rain = 0
KSLS 090125Z 02002KT M02/M03 A3027 RMK A01 T10191028  RH  095%=      5-min Rain = 0
KSLS 090130Z 02001KT M02/M03 A3028 RMK A01 T10201029  RH  095%=      5-min Rain = 0
KSLS 090135Z 02001KT M02/M03 A3027 RMK A01 T10221031  RH  095%=      5-min Rain = 0
KSLS 090140Z 03001KT M02/M03 A3027 RMK A01 T10231031  RH  095%=      5-min Rain = 0
KSLS 090145Z 02001KT M02/M03 A3028 RMK A01 T10231030  RH  096%=      5-min Rain = 0
KSLS 090150Z 02001KT M02/M03 A3028 RMK A01 T10241032  RH  096%=      5-min Rain = 0
KSLS 090155Z 02001KT M02/M03 A3028 RMK A01 T10241030  RH  096%=      5-min Rain = 0
KSLS 090200Z 02001KT M02/M03 A3028 RMK A01 T10221027  RH  097%=      5-min Rain = 0
KSLS 090205Z 02000KT M02/M03 A3028 RMK A01 T10241030  RH  097%=      5-min Rain = 0
KSLS 090210Z 31001KT M03/M04 A3028 RMK A01 T10311037  RH  096%=      5-min Rain = 0
KSLS 090215Z 28003KT M04/M04 A3028 RMK A01 T10381044  RH  096%=      5-min Rain = 0
KSLS 090220Z 28004KT M04/M05 A3028 RMK A01 T10411047  RH  097%=      5-min Rain = 0
KSLS 090225Z 28004KT M04/M05 A3028 RMK A01 T10421047  RH  097%=      5-min Rain = 0
KSLS 090230Z 28004KT M04/M05 A3028 RMK A01 T10431048  RH  097%=      5-min Rain = 0
KSLS 090235Z 27004KT M04/M04 A3028 RMK A01 T10381043  RH  098%=      5-min Rain = 0
KSLS 090240Z 28004KT M04/M04 A3028 RMK A01 T10381042  RH  098%=      5-min Rain = 0
KSLS 090245Z 28004KT M04/M04 A3028 RMK A01 T10391043  RH  098%=      5-min Rain = 0
KSLS 090250Z 28004KT M03/M04 A3028 RMK A01 T10321036  RH  099%=      5-min Rain = 0
KSLS 090255Z 28004KT M04/M04 A3028 RMK A01 T10361039  RH  098%=      5-min Rain = 0
KSLS 090300Z 30002KT M05/M05 A3028 RMK A01 T10461051  RH  097%=      5-min Rain = 0
KSLS 090305Z 28004KT M05/M06 A3028 RMK A01 T10521057  RH  097%=      5-min Rain = 0
KSLS 090310Z 28005KT M05/M05 A3029 RMK A01 T10481052  RH  098%=      5-min Rain = 0
KSLS 090315Z 28005KT M05/M05 A3029 RMK A01 T10451048  RH  098%=      5-min Rain = 0
KSLS 090320Z 28006KT M05/M06 A3029 RMK A01 T10541059  RH  097%=      5-min Rain = 0
KSLS 090325Z 29005KT M05/M06 A3029 RMK A01 T10541058  RH  098%=      5-min Rain = 0
KSLS 090330Z 29005KT M06/M06 A3029 RMK A01 T10581063  RH  098%=      5-min Rain = 0
KSLS 090335Z 28006KT M07/M07 A3029 RMK A01 T10681074  RH  097%=      5-min Rain = 0
KSLS 090340Z 28005KT M07/M08 A3029 RMK A01 T10711077  RH  097%=      5-min Rain = 0
KSLS 090345Z 28006KT M07/M08 A3029 RMK A01 T10701075  RH  098%=      5-min Rain = 0
KSLS 090350Z 28006KT M07/M07 A3029 RMK A01 T10691074  RH  098%=      5-min Rain = 0
KSLS 090355Z 28006KT M07/M08 A303 RMK A01 T10721077  RH  097%=      5-min Rain = 0
KSLS 090400Z 28007KT M08/M08 A303 RMK A01 T10761082  RH  097%=      5-min Rain = 0
KSLS 090405Z 28008KT M08/M09 A303 RMK A01 T10811088  RH  096%=      5-min Rain = 0
KSLS 090410Z 27008KT M08/M09 A303 RMK A01 T10821088  RH  097%=      5-min Rain = 0
KSLS 090415Z 27008KT M08/M08 A303 RMK A01 T10791084  RH  097%=      5-min Rain = 0
KSLS 090420Z 27009KT M08/M08 A303 RMK A01 T10761081  RH  097%=      5-min Rain = 0
KSLS 090425Z 28009KT M08/M08 A303 RMK A01 T10761082  RH  097%=      5-min Rain = 0
KSLS 090430Z 28009KT M08/M08 A303 RMK A01 T10771082  RH  097%=      5-min Rain = 0
KSLS 090435Z 28009KT M07/M08 A303 RMK A01 T10731078  RH  097%=      5-min Rain = 0
KSLS 090440Z 28009KT M07/M08 A303 RMK A01 T10741079  RH  097%=      5-min Rain = 0
KSLS 090445Z 28009KT M08/M08 A3031 RMK A01 T10751081  RH  097%=      5-min Rain = 0
KSLS 090450Z 28009KT M08/M08 A3031 RMK A01 T10761082  RH  097%=      5-min Rain = 0
KSLS 090455Z 28009KT M08/M08 A3031 RMK A01 T10751081  RH  097%=      5-min Rain = 0
KSLS 090500Z 28010KT M08/M08 A3031 RMK A01 T10771083  RH  096%=      5-min Rain = 0
KSLS 090505Z 28009KT M07/M08 A303 RMK A01 T10701075  RH  097%=      5-min Rain = 0
KSLS 090510Z 28010KT M07/M07 A303 RMK A01 T10671072  RH  097%=      5-min Rain = 0
KSLS 090515Z 28009KT M07/M07 A303 RMK A01 T10661072  RH  097%=      5-min Rain = 0
KSLS 090520Z 28009KT M07/M07 A303 RMK A01 T10661071  RH  097%=      5-min Rain = 0
KSLS 090525Z 28009KT M07/M07 A303 RMK A01 T10661072  RH  096%=      5-min Rain = 0
KSLS 090530Z 28010KT M06/M07 A303 RMK A01 T10641070  RH  097%=      5-min Rain = 0
KSLS 090535Z 28009KT M07/M07 A3031 RMK A01 T10661073  RH  096%=      5-min Rain = 0
KSLS 090540Z 28010KT M06/M07 A3031 RMK A01 T10621067  RH  097%=      5-min Rain = 0
KSLS 090545Z 29010KT M06/M06 A303 RMK A01 T10551060  RH  097%=      5-min Rain = 0
KSLS 090550Z 29010KT M05/M06 A3031 RMK A01 T10531059  RH  097%=      5-min Rain = 0
KSLS 090555Z 29009KT M06/M06 A303 RMK A01 T10551062  RH  096%=      5-min Rain = 0

Page generated in 0.0099 seconds.